createdAt,value
2019-03-29T00:00:32.248Z,7.83
2019-03-29T00:02:59.285Z,7.67
2019-03-29T00:05:27.062Z,7.76
2019-03-29T00:07:54.874Z,7.74
2019-03-29T00:10:22.676Z,7.67
2019-03-29T00:12:50.462Z,7.44
2019-03-29T00:15:18.246Z,7.55
2019-03-29T00:17:46.042Z,7.49
2019-03-29T00:20:13.842Z,7.40
2019-03-29T00:22:41.661Z,7.39
2019-03-29T00:25:09.460Z,7.39
2019-03-29T00:27:37.244Z,7.64
2019-03-29T00:30:05.145Z,7.71
2019-03-29T00:32:32.944Z,7.72
2019-03-29T00:35:00.763Z,7.84
2019-03-29T00:37:28.541Z,7.82
2019-03-29T00:39:56.374Z,7.66
2019-03-29T00:42:24.162Z,7.63
2019-03-29T00:44:52.789Z,7.79
2019-03-29T00:47:19.756Z,7.65
2019-03-29T00:49:47.545Z,7.39
2019-03-29T00:52:15.326Z,7.31
2019-03-29T00:54:43.297Z,7.18
2019-03-29T00:57:11.079Z,7.31
2019-03-29T00:59:38.894Z,7.27
2019-03-29T01:02:06.681Z,7.37
2019-03-29T01:04:34.478Z,7.30
2019-03-29T01:07:02.275Z,7.27
2019-03-29T01:09:30.239Z,7.26
2019-03-29T01:11:57.890Z,7.34
2019-03-29T01:14:25.748Z,7.53
2019-03-29T01:16:53.965Z,7.61
2019-03-29T01:19:21.326Z,7.70
2019-03-29T01:21:49.122Z,7.79
2019-03-29T01:24:16.942Z,7.82
2019-03-29T01:26:44.738Z,8.09
2019-03-29T01:29:12.543Z,8.03
2019-03-29T01:31:40.968Z,8.00
2019-03-29T01:34:08.129Z,7.96
2019-03-29T01:36:35.906Z,7.84
2019-03-29T01:39:04.989Z,7.75
2019-03-29T01:41:32.786Z,7.63
2019-03-29T01:44:01.857Z,7.63
2019-03-29T01:46:28.386Z,7.58
2019-03-29T01:48:56.193Z,7.53
2019-03-29T01:51:23.985Z,7.43
2019-03-29T01:53:51.797Z,7.49
2019-03-29T01:56:19.611Z,7.36
2019-03-29T01:58:47.410Z,7.24
2019-03-29T02:01:15.331Z,7.12
2019-03-29T02:03:43.140Z,7.10
2019-03-29T02:06:10.910Z,7.07
2019-03-29T02:08:38.758Z,7.06
2019-03-29T02:11:06.581Z,7.08
2019-03-29T02:13:34.382Z,7.02
2019-03-29T02:16:02.170Z,7.13
2019-03-29T02:18:29.969Z,7.14
2019-03-29T02:20:57.763Z,7.15
2019-03-29T02:23:25.556Z,7.21
2019-03-29T02:25:53.421Z,7.43
2019-03-29T02:28:21.174Z,7.52
2019-03-29T02:30:49.123Z,7.74
2019-03-29T02:33:16.926Z,7.56
2019-03-29T02:35:44.701Z,7.43
2019-03-29T02:38:12.572Z,7.50
2019-03-29T02:40:40.335Z,7.54
2019-03-29T02:43:08.145Z,7.42
2019-03-29T02:45:35.936Z,7.35
2019-03-29T02:48:03.752Z,7.34
2019-03-29T02:50:31.531Z,7.37
2019-03-29T02:52:59.372Z,7.30
2019-03-29T02:55:27.158Z,7.48
2019-03-29T02:57:54.987Z,7.43
2019-03-29T03:00:22.754Z,7.43
2019-03-29T03:02:50.593Z,7.41
2019-03-29T03:05:18.378Z,7.40
2019-03-29T03:07:46.209Z,7.28
2019-03-29T03:10:13.992Z,7.39
2019-03-29T03:12:41.798Z,7.17
2019-03-29T03:15:09.647Z,7.15
2019-03-29T03:17:37.579Z,7.23
2019-03-29T03:20:07.060Z,7.37
2019-03-29T03:22:34.887Z,7.34
2019-03-29T03:25:02.706Z,7.18
2019-03-29T03:27:30.533Z,7.24
2019-03-29T03:29:58.327Z,6.99
2019-03-29T03:32:26.112Z,6.94
2019-03-29T03:34:53.946Z,6.81
2019-03-29T03:37:21.831Z,6.64
2019-03-29T03:39:49.602Z,6.57
2019-03-29T03:42:17.389Z,6.49
2019-03-29T03:44:45.203Z,6.52
2019-03-29T03:47:13.058Z,6.60
2019-03-29T03:49:40.921Z,6.62
2019-03-29T03:52:08.727Z,6.48
2019-03-29T03:54:36.598Z,6.45
2019-03-29T03:57:04.747Z,6.49
2019-03-29T03:59:32.584Z,6.54
2019-03-29T04:02:00.379Z,6.60
2019-03-29T04:04:28.270Z,6.62
2019-03-29T04:06:56.063Z,6.63
2019-03-29T04:09:23.874Z,6.74
2019-03-29T04:11:51.661Z,6.83
2019-03-29T04:14:19.478Z,6.84
2019-03-29T04:16:47.287Z,6.80
2019-03-29T04:19:15.119Z,6.77
2019-03-29T04:21:42.910Z,6.73
2019-03-29T04:24:10.743Z,6.84
2019-03-29T04:26:38.535Z,6.90
2019-03-29T04:29:06.355Z,6.83
2019-03-29T04:31:34.206Z,6.75
2019-03-29T04:34:01.990Z,6.96
2019-03-29T04:36:29.831Z,7.00
2019-03-29T04:38:57.606Z,7.13
2019-03-29T04:41:25.422Z,6.79
2019-03-29T04:43:53.202Z,6.63
2019-03-29T04:46:21.042Z,6.46
2019-03-29T04:48:48.830Z,6.39
2019-03-29T04:51:16.650Z,6.06
2019-03-29T04:53:44.441Z,6.00
2019-03-29T04:56:12.263Z,5.94
2019-03-29T04:58:40.054Z,5.75
2019-03-29T05:01:07.874Z,5.83
2019-03-29T05:03:35.658Z,5.77
2019-03-29T05:06:03.477Z,5.82
2019-03-29T05:08:31.257Z,5.96
2019-03-29T05:10:59.067Z,5.99
2019-03-29T05:13:26.857Z,6.10
2019-03-29T05:15:54.669Z,6.21
2019-03-29T05:18:22.460Z,6.27
2019-03-29T05:20:50.274Z,6.32
2019-03-29T05:23:18.201Z,6.44
2019-03-29T05:25:46.001Z,6.40
2019-03-29T05:28:13.801Z,6.51
2019-03-29T05:30:41.606Z,6.50
2019-03-29T05:33:09.402Z,6.31
2019-03-29T05:35:37.214Z,6.31
2019-03-29T05:38:05.005Z,6.46
2019-03-29T05:40:35.271Z,6.61
2019-03-29T05:43:00.617Z,6.63
2019-03-29T05:45:28.406Z,6.62
2019-03-29T05:47:56.352Z,6.58
2019-03-29T05:50:24.178Z,6.70
2019-03-29T05:52:52.681Z,6.71
2019-03-29T05:55:32.042Z,6.73
2019-03-29T05:57:48.941Z,6.76
2019-03-29T06:00:18.808Z,6.99
2019-03-29T06:02:46.638Z,7.13
2019-03-29T06:05:14.429Z,7.15
2019-03-29T06:07:42.354Z,7.23
2019-03-29T06:10:10.142Z,7.29
2019-03-29T06:12:37.954Z,7.30
2019-03-29T06:15:05.766Z,7.36
2019-03-29T06:17:33.586Z,7.40
2019-03-29T06:20:01.387Z,7.55
2019-03-29T06:22:29.197Z,7.66
2019-03-29T06:24:56.987Z,7.82
2019-03-29T06:27:24.810Z,7.95
2019-03-29T06:29:52.621Z,8.11
2019-03-29T06:32:20.439Z,8.30
2019-03-29T06:34:48.342Z,8.41
2019-03-29T06:37:16.503Z,8.42
2019-03-29T06:39:44.386Z,8.51
2019-03-29T06:42:12.203Z,8.56
2019-03-29T06:44:39.986Z,8.69
2019-03-29T06:47:07.833Z,8.91
2019-03-29T06:49:35.622Z,9.01
2019-03-29T06:52:03.409Z,9.13
2019-03-29T06:54:31.221Z,9.40
2019-03-29T06:56:59.141Z,9.40
2019-03-29T06:59:26.961Z,9.45
2019-03-29T07:01:54.780Z,9.75
2019-03-29T07:04:22.539Z,9.87
2019-03-29T07:06:50.338Z,9.77
2019-03-29T07:09:18.142Z,10.08
2019-03-29T07:11:45.955Z,10.07
2019-03-29T07:14:13.758Z,10.14
2019-03-29T07:16:41.559Z,10.15
2019-03-29T07:19:09.370Z,10.30
2019-03-29T07:21:37.163Z,10.38
2019-03-29T07:24:04.965Z,10.34
2019-03-29T07:26:32.767Z,10.40
2019-03-29T07:29:00.562Z,10.39
2019-03-29T07:31:28.353Z,10.40
2019-03-29T07:33:56.190Z,10.46
2019-03-29T07:36:24.178Z,10.71
2019-03-29T07:38:51.958Z,10.95
2019-03-29T07:41:30.943Z,10.76
2019-03-29T07:43:47.530Z,10.76
2019-03-29T07:46:15.324Z,10.68
2019-03-29T07:48:43.121Z,10.79
2019-03-29T07:51:11.019Z,10.92
2019-03-29T07:53:38.821Z,11.12
2019-03-29T07:56:06.642Z,10.83
2019-03-29T07:58:34.442Z,10.90
2019-03-29T08:01:02.243Z,11.21
2019-03-29T08:03:30.026Z,11.20
2019-03-29T08:05:57.878Z,11.19
2019-03-29T08:08:32.020Z,11.22
2019-03-29T08:10:54.058Z,11.40
2019-03-29T08:13:21.230Z,11.70
2019-03-29T08:15:49.026Z,11.53
2019-03-29T08:18:16.812Z,11.84
2019-03-29T08:20:44.904Z,12.15
2019-03-29T08:23:12.521Z,12.09
2019-03-29T08:25:40.328Z,12.14
2019-03-29T08:28:08.130Z,12.48
2019-03-29T08:30:35.926Z,12.60
2019-03-29T08:33:03.730Z,12.69
2019-03-29T08:35:31.557Z,13.31
2019-03-29T08:37:59.336Z,13.64
2019-03-29T08:40:27.138Z,13.43
2019-03-29T08:42:55.218Z,13.20
2019-03-29T08:45:23.010Z,13.21
2019-03-29T08:47:50.794Z,13.22
2019-03-29T08:50:18.646Z,13.75
2019-03-29T08:52:46.422Z,13.14
2019-03-29T08:55:17.289Z,12.98
2019-03-29T08:57:42.002Z,13.14
2019-03-29T09:00:09.885Z,13.33
2019-03-29T09:02:37.737Z,13.48
2019-03-29T09:05:05.618Z,13.72
2019-03-29T09:07:44.040Z,13.90
2019-03-29T09:10:01.196Z,14.20
2019-03-29T09:12:28.999Z,14.03
2019-03-29T09:14:56.789Z,14.02
2019-03-29T09:17:24.596Z,13.93
2019-03-29T09:19:52.386Z,14.05
2019-03-29T09:22:20.186Z,14.26
2019-03-29T09:24:47.970Z,14.24
2019-03-29T09:27:15.808Z,14.07
2019-03-29T09:29:43.607Z,14.29
2019-03-29T09:32:11.454Z,14.49
2019-03-29T09:34:39.242Z,14.91
2019-03-29T09:37:07.051Z,14.97
2019-03-29T09:39:34.842Z,15.28
2019-03-29T09:42:02.639Z,15.59
2019-03-29T09:44:30.425Z,15.50
2019-03-29T09:46:58.218Z,15.44
2019-03-29T09:49:26.006Z,15.73
2019-03-29T09:51:53.882Z,15.32
2019-03-29T09:54:21.680Z,15.31
2019-03-29T09:56:49.482Z,15.17
2019-03-29T09:59:17.263Z,14.83
2019-03-29T10:01:45.063Z,15.40
2019-03-29T10:04:12.842Z,15.80
2019-03-29T10:06:40.643Z,15.56
2019-03-29T10:09:08.447Z,15.27
2019-03-29T10:11:36.281Z,15.62
2019-03-29T10:14:04.138Z,15.25
2019-03-29T10:16:31.890Z,15.64
2019-03-29T10:18:59.674Z,15.71
2019-03-29T10:21:27.525Z,15.68
2019-03-29T10:23:55.410Z,15.76
2019-03-29T10:26:23.213Z,16.14
2019-03-29T10:28:51.015Z,16.49
2019-03-29T10:31:31.597Z,16.41
2019-03-29T10:33:49.080Z,16.57
2019-03-29T10:36:14.437Z,16.81
2019-03-29T10:38:42.218Z,17.21
2019-03-29T10:41:10.033Z,17.04
2019-03-29T10:43:37.857Z,17.19
2019-03-29T10:46:05.694Z,16.84
2019-03-29T10:48:33.478Z,16.47
2019-03-29T10:51:01.260Z,16.50
2019-03-29T10:53:29.212Z,16.47
2019-03-29T10:55:56.862Z,16.62
2019-03-29T10:58:24.661Z,16.32
2019-03-29T11:00:52.442Z,16.39
2019-03-29T11:03:20.250Z,16.42
2019-03-29T11:05:48.035Z,16.32
2019-03-29T11:08:15.838Z,16.52
2019-03-29T11:10:43.610Z,17.10
2019-03-29T11:13:13.588Z,17.35
2019-03-29T11:15:39.284Z,17.73
2019-03-29T11:18:07.109Z,17.31
2019-03-29T11:20:34.891Z,17.12
2019-03-29T11:23:02.693Z,16.90
2019-03-29T11:25:30.482Z,16.86
2019-03-29T11:27:58.330Z,16.75
2019-03-29T11:30:26.052Z,16.85
2019-03-29T11:32:53.846Z,16.90
2019-03-29T11:35:21.622Z,16.86
2019-03-29T11:37:49.430Z,16.62
2019-03-29T11:40:17.214Z,16.96
2019-03-29T11:42:45.022Z,17.24
2019-03-29T11:45:12.823Z,17.32
2019-03-29T11:47:40.638Z,17.08
2019-03-29T11:50:08.422Z,17.39
2019-03-29T11:52:36.262Z,17.97
2019-03-29T11:55:04.421Z,17.76
2019-03-29T11:57:32.234Z,17.62
2019-03-29T12:00:00.375Z,17.48
2019-03-29T12:02:31.408Z,17.99
2019-03-29T12:04:55.755Z,18.33
2019-03-29T12:07:23.546Z,18.94
2019-03-29T12:09:51.359Z,18.66
2019-03-29T12:12:19.182Z,18.25
2019-03-29T12:14:46.974Z,18.10
2019-03-29T12:17:14.788Z,18.92
2019-03-29T12:19:42.590Z,18.62
2019-03-29T12:22:10.415Z,18.13
2019-03-29T12:24:38.222Z,17.81
2019-03-29T12:27:06.030Z,17.72
2019-03-29T12:29:33.814Z,17.73
2019-03-29T12:32:01.623Z,17.41
2019-03-29T12:34:29.459Z,17.31
2019-03-29T12:36:57.256Z,17.84
2019-03-29T12:39:25.194Z,17.47
2019-03-29T12:41:52.994Z,17.97
2019-03-29T12:44:20.826Z,18.05
2019-03-29T12:46:48.674Z,18.16
2019-03-29T12:49:16.479Z,18.42
2019-03-29T12:51:46.606Z,18.50
2019-03-29T12:54:12.385Z,18.12
2019-03-29T12:56:39.962Z,17.88
2019-03-29T12:59:07.707Z,17.78
2019-03-29T13:01:40.609Z,17.83
2019-03-29T13:04:09.782Z,17.73
2019-03-29T13:06:35.965Z,17.65
2019-03-29T13:09:04.282Z,17.82
2019-03-29T13:11:32.090Z,17.99
2019-03-29T13:14:09.996Z,17.64
2019-03-29T13:16:27.820Z,17.72
2019-03-29T13:18:55.573Z,17.73
2019-03-29T13:21:23.377Z,18.16
2019-03-29T13:23:51.202Z,17.96
2019-03-29T13:26:19.022Z,17.78
2019-03-29T13:28:46.810Z,18.18
2019-03-29T13:31:14.710Z,17.59
2019-03-29T13:33:42.545Z,17.36
2019-03-29T13:36:10.350Z,17.59
2019-03-29T13:38:38.160Z,17.73
2019-03-29T13:41:07.156Z,18.24
2019-03-29T13:43:33.751Z,17.95
2019-03-29T13:46:01.594Z,17.98
2019-03-29T13:48:29.414Z,17.99
2019-03-29T13:50:59.459Z,18.17
2019-03-29T13:53:25.050Z,17.78
2019-03-29T13:55:52.907Z,18.07
2019-03-29T13:58:20.698Z,18.17
2019-03-29T14:00:48.582Z,18.07
2019-03-29T14:03:16.385Z,17.90
2019-03-29T14:05:44.191Z,18.14
2019-03-29T14:08:12.000Z,18.23
2019-03-29T14:10:39.791Z,18.38
2019-03-29T14:13:07.579Z,18.17
2019-03-29T14:15:35.366Z,18.19
2019-03-29T14:18:03.257Z,18.25
2019-03-29T14:20:32.141Z,18.40
2019-03-29T14:23:00.287Z,18.63
2019-03-29T14:25:28.063Z,18.69
2019-03-29T14:27:55.869Z,18.49
2019-03-29T14:30:23.662Z,18.26
2019-03-29T14:32:51.477Z,18.20
2019-03-29T14:35:19.263Z,17.93
2019-03-29T14:37:47.065Z,18.28
2019-03-29T14:40:14.854Z,18.26
2019-03-29T14:42:42.751Z,18.31
2019-03-29T14:45:10.569Z,18.06
2019-03-29T14:47:42.902Z,18.12
2019-03-29T14:50:06.350Z,18.32
2019-03-29T14:52:34.162Z,18.49
2019-03-29T14:55:01.986Z,18.74
2019-03-29T14:57:29.791Z,18.35
2019-03-29T14:59:57.586Z,18.23
2019-03-29T15:02:25.613Z,18.36
2019-03-29T15:04:53.399Z,18.32
2019-03-29T15:07:21.205Z,18.44
2019-03-29T15:09:49.046Z,18.39
2019-03-29T15:12:16.871Z,18.37
2019-03-29T15:14:44.658Z,18.34
2019-03-29T15:17:12.589Z,18.23
2019-03-29T15:19:40.392Z,18.20
2019-03-29T15:22:08.247Z,18.17
2019-03-29T15:24:36.068Z,18.19
2019-03-29T15:27:03.895Z,18.02
2019-03-29T15:29:31.682Z,18.23
2019-03-29T15:31:59.495Z,18.04
2019-03-29T15:34:27.270Z,18.39
2019-03-29T15:36:55.087Z,18.24
2019-03-29T15:39:22.902Z,18.30
2019-03-29T15:41:50.694Z,18.58
2019-03-29T15:44:18.503Z,18.47
2019-03-29T15:46:46.346Z,18.41
2019-03-29T15:49:14.169Z,18.45
2019-03-29T15:51:42.086Z,18.39
2019-03-29T15:54:09.902Z,18.27
2019-03-29T15:56:38.267Z,18.19
2019-03-29T15:59:06.099Z,18.15
2019-03-29T16:01:34.143Z,17.96
2019-03-29T16:04:02.043Z,17.95
2019-03-29T16:06:29.831Z,18.18
2019-03-29T16:08:57.706Z,18.02
2019-03-29T16:11:25.600Z,18.07
2019-03-29T16:13:53.402Z,18.02
2019-03-29T16:16:21.193Z,18.22
2019-03-29T16:18:49.013Z,18.27
2019-03-29T16:21:16.817Z,18.16
2019-03-29T16:23:44.634Z,18.29
2019-03-29T16:26:12.434Z,18.33
2019-03-29T16:28:40.227Z,18.23
2019-03-29T16:31:08.026Z,18.01
2019-03-29T16:33:35.839Z,17.75
2019-03-29T16:36:03.722Z,17.80
2019-03-29T16:38:31.549Z,17.84
2019-03-29T16:40:59.391Z,17.92
2019-03-29T16:43:27.198Z,17.85
2019-03-29T16:45:55.002Z,17.70
2019-03-29T16:48:22.806Z,17.64
2019-03-29T16:50:50.593Z,17.69
2019-03-29T16:53:18.401Z,17.68
2019-03-29T16:55:46.194Z,17.63
2019-03-29T16:58:13.997Z,17.54
2019-03-29T17:00:41.787Z,17.59
2019-03-29T17:03:09.583Z,17.46
2019-03-29T17:05:37.366Z,17.32
2019-03-29T17:08:05.631Z,17.27
2019-03-29T17:10:32.973Z,17.14
2019-03-29T17:13:00.779Z,16.98
2019-03-29T17:15:28.569Z,16.99
2019-03-29T17:17:56.354Z,16.95
2019-03-29T17:20:24.166Z,16.76
2019-03-29T17:22:51.978Z,16.55
2019-03-29T17:25:19.783Z,16.43
2019-03-29T17:27:47.789Z,16.24
2019-03-29T17:30:15.937Z,16.17
2019-03-29T17:32:43.718Z,16.06
2019-03-29T17:35:11.547Z,15.89
2019-03-29T17:37:39.326Z,15.97
2019-03-29T17:40:07.289Z,15.86
2019-03-29T17:42:35.102Z,15.77
2019-03-29T17:45:03.046Z,15.82
2019-03-29T17:47:30.838Z,15.53
2019-03-29T17:49:58.634Z,15.51
2019-03-29T17:52:26.553Z,15.37
2019-03-29T17:54:54.382Z,15.30
2019-03-29T17:57:22.168Z,15.21
2019-03-29T17:59:50.059Z,14.99
2019-03-29T18:02:17.747Z,14.77
2019-03-29T18:04:45.550Z,14.59
2019-03-29T18:07:13.329Z,14.51
2019-03-29T18:09:41.135Z,14.34
2019-03-29T18:12:11.411Z,14.29
2019-03-29T18:14:36.718Z,14.48
2019-03-29T18:17:04.554Z,14.58
2019-03-29T18:19:32.366Z,14.64
2019-03-29T18:22:00.174Z,14.60
2019-03-29T18:24:27.967Z,14.41
2019-03-29T18:26:55.767Z,14.38
2019-03-29T18:29:23.562Z,14.17
2019-03-29T18:31:51.366Z,14.06
2019-03-29T18:34:19.309Z,13.93
2019-03-29T18:36:47.115Z,13.92
2019-03-29T18:39:14.926Z,13.87
2019-03-29T18:41:42.707Z,13.40
2019-03-29T18:44:10.494Z,12.82
2019-03-29T18:46:44.455Z,12.69
2019-03-29T18:49:06.194Z,12.67
2019-03-29T18:51:34.007Z,12.62
2019-03-29T18:54:01.800Z,12.72
2019-03-29T18:56:29.595Z,12.80
2019-03-29T18:58:57.379Z,12.87
2019-03-29T19:01:25.202Z,13.03
2019-03-29T19:03:52.981Z,13.04
2019-03-29T19:06:20.780Z,13.11
2019-03-29T19:08:48.599Z,13.12
2019-03-29T19:11:16.399Z,13.20
2019-03-29T19:13:44.194Z,13.35
2019-03-29T19:16:12.022Z,13.54
2019-03-29T19:18:39.801Z,13.28
2019-03-29T19:21:07.654Z,12.96
2019-03-29T19:23:35.430Z,12.99
2019-03-29T19:26:03.222Z,13.23
2019-03-29T19:28:31.006Z,12.94
2019-03-29T19:30:58.818Z,12.81
2019-03-29T19:33:26.655Z,12.79
2019-03-29T19:35:54.449Z,13.20
2019-03-29T19:38:22.238Z,12.72
2019-03-29T19:40:50.079Z,13.10
2019-03-29T19:43:18.194Z,12.80
2019-03-29T19:45:46.002Z,13.05
2019-03-29T19:48:14.147Z,12.58
2019-03-29T19:53:08.228Z,12.98
2019-03-29T19:55:36.052Z,12.40
2019-03-29T19:58:04.040Z,12.22
2019-03-29T20:00:37.108Z,12.10
2019-03-29T20:03:04.971Z,12.01
2019-03-29T20:05:33.020Z,12.44
2019-03-29T20:08:00.899Z,12.32
2019-03-29T20:10:28.697Z,12.33
2019-03-29T20:12:56.490Z,11.54
2019-03-29T20:15:24.374Z,11.49
2019-03-29T20:17:52.277Z,11.34
2019-03-29T20:20:23.436Z,11.36
2019-03-29T20:22:52.235Z,11.37
2019-03-29T20:25:20.031Z,11.27
2019-03-29T20:27:47.810Z,11.09
2019-03-29T20:30:15.601Z,11.03
2019-03-29T20:32:43.382Z,10.89
2019-03-29T20:35:11.187Z,11.12
2019-03-29T20:37:38.998Z,10.89
2019-03-29T20:40:06.798Z,10.86
2019-03-29T20:42:34.602Z,10.89
2019-03-29T20:45:02.402Z,10.79
2019-03-29T20:47:41.272Z,10.89
2019-03-29T20:49:58.018Z,10.88
2019-03-29T20:52:25.882Z,10.82
2019-03-29T20:54:53.657Z,10.72
2019-03-29T20:57:21.596Z,10.80
2019-03-29T20:59:49.402Z,10.68
2019-03-29T21:02:17.222Z,10.64
2019-03-29T21:04:44.998Z,10.62
2019-03-29T21:07:12.805Z,10.53
2019-03-29T21:09:40.586Z,10.76
2019-03-29T21:12:08.382Z,10.51
2019-03-29T21:14:36.156Z,10.38
2019-03-29T21:17:03.949Z,10.19
2019-03-29T21:19:31.726Z,10.27
2019-03-29T21:21:59.543Z,10.31
2019-03-29T21:24:27.618Z,10.22
2019-03-29T21:26:55.482Z,10.26
2019-03-29T21:29:23.258Z,10.25
2019-03-29T21:31:51.086Z,10.05
2019-03-29T21:34:18.859Z,10.72
2019-03-29T21:36:46.665Z,10.12
2019-03-29T21:39:14.459Z,10.12
2019-03-29T21:41:42.298Z,9.85
2019-03-29T21:44:10.070Z,9.83
2019-03-29T21:46:37.876Z,9.80
2019-03-29T21:49:05.649Z,9.79
2019-03-29T21:51:33.461Z,9.79
2019-03-29T21:54:01.242Z,9.90
2019-03-29T21:56:29.038Z,10.14
2019-03-29T21:58:56.834Z,10.07
2019-03-29T22:01:24.654Z,10.38
2019-03-29T22:03:52.426Z,10.48
2019-03-29T22:06:20.333Z,9.82
2019-03-29T22:11:30.310Z,9.66
2019-03-29T22:13:58.107Z,9.74
2019-03-29T22:16:25.914Z,10.12
2019-03-29T22:18:53.701Z,9.74
2019-03-29T22:21:21.510Z,9.60
2019-03-29T22:23:49.317Z,10.06
2019-03-29T22:26:17.095Z,9.50
2019-03-29T22:28:44.882Z,9.48
2019-03-29T22:31:12.662Z,9.51
2019-03-29T22:33:40.494Z,9.42
2019-03-29T22:36:08.281Z,9.34
2019-03-29T22:38:36.074Z,9.17
2019-03-29T22:41:03.845Z,9.15
2019-03-29T22:43:31.723Z,9.03
2019-03-29T22:45:59.498Z,8.88
2019-03-29T22:48:27.355Z,8.68
2019-03-29T22:50:55.146Z,8.61
2019-03-29T22:53:22.945Z,8.54
2019-03-29T22:55:50.746Z,8.59
2019-03-29T22:58:18.547Z,8.63
2019-03-29T23:00:46.793Z,8.58
2019-03-29T23:03:14.609Z,8.51
2019-03-29T23:05:42.429Z,8.65
2019-03-29T23:08:10.369Z,8.72
2019-03-29T23:10:38.178Z,9.03
2019-03-29T23:13:06.007Z,9.11
2019-03-29T23:15:33.807Z,9.30
2019-03-29T23:18:01.622Z,9.10
2019-03-29T23:20:29.410Z,9.26
2019-03-29T23:22:57.254Z,8.46
2019-03-29T23:25:25.146Z,8.59
2019-03-29T23:27:52.963Z,8.42
2019-03-29T23:30:20.765Z,8.49
2019-03-29T23:32:48.561Z,8.42
2019-03-29T23:35:16.394Z,8.37
2019-03-29T23:37:44.303Z,8.81
2019-03-29T23:40:12.080Z,8.53
2019-03-29T23:42:39.873Z,8.18
2019-03-29T23:45:08.104Z,8.24
2019-03-29T23:47:35.938Z,8.18
2019-03-29T23:50:03.760Z,7.91
2019-03-29T23:52:31.569Z,8.27
2019-03-29T23:54:59.367Z,8.38
2019-03-29T23:57:27.166Z,7.88
2019-03-29T23:59:54.974Z,8.55
